createdAt,value
2018-04-12T00:00:03.606Z,99702.31
2018-04-12T00:02:31.887Z,99700.64
2018-04-12T00:05:00.153Z,99693.75
2018-04-12T00:07:28.441Z,99688.95
2018-04-12T00:09:56.711Z,99685.17
2018-04-12T00:12:24.977Z,99678.23
2018-04-12T00:14:53.253Z,99682.95
2018-04-12T00:17:21.521Z,99675.42
2018-04-12T00:19:49.810Z,99677.02
2018-04-12T00:22:18.074Z,99680.63
2018-04-12T00:24:46.345Z,99673.19
2018-04-12T00:27:14.625Z,99669.62
2018-04-12T00:29:42.890Z,99660.55
2018-04-12T00:32:11.178Z,99652.13
2018-04-12T00:34:39.454Z,99650.53
2018-04-12T00:37:07.729Z,99653.33
2018-04-12T00:39:36.006Z,99652.27
2018-04-12T00:42:04.289Z,99649.14
2018-04-12T00:44:32.574Z,99639.77
2018-04-12T00:47:00.845Z,99636.81
2018-04-12T00:49:29.116Z,99646.75
2018-04-12T00:51:57.393Z,99642.35
2018-04-12T00:54:25.663Z,99653.19
2018-04-12T00:56:53.945Z,99651.83
2018-04-12T00:59:22.217Z,99657.02
2018-04-12T01:01:50.486Z,99649.52
2018-04-12T01:04:18.761Z,99648.67
2018-04-12T01:06:47.025Z,99649.03
2018-04-12T01:09:15.309Z,99647.42
2018-04-12T01:11:43.577Z,99646.36
2018-04-12T01:14:11.857Z,99650.75
2018-04-12T01:16:40.142Z,99645.44
2018-04-12T01:19:08.425Z,99650.03
2018-04-12T01:21:36.730Z,99643.18
2018-04-12T01:24:04.981Z,99639.39
2018-04-12T01:26:33.238Z,99635.31
2018-04-12T01:29:01.509Z,99633.02
2018-04-12T01:31:29.781Z,99627.44
2018-04-12T01:33:58.061Z,99627.44
2018-04-12T01:36:26.333Z,99631.20
2018-04-12T01:38:54.601Z,99626.89
2018-04-12T01:41:22.874Z,99620.04
2018-04-12T01:43:51.142Z,99617.94
2018-04-12T01:46:19.429Z,99617.12
2018-04-12T01:48:47.702Z,99621.95
2018-04-12T01:51:15.961Z,99616.03
2018-04-12T01:53:44.246Z,99613.30
2018-04-12T01:56:13.429Z,99606.63
2018-04-12T02:01:38.915Z,99599.42
2018-04-12T02:04:07.179Z,99605.46
2018-04-12T02:06:35.467Z,99602.00
2018-04-12T02:09:03.739Z,99600.81
2018-04-12T02:11:32.016Z,99589.70
2018-04-12T02:14:00.302Z,99587.59
2018-04-12T02:16:28.576Z,99585.18
2018-04-12T02:18:56.876Z,99584.94
2018-04-12T02:21:25.146Z,99573.69
2018-04-12T02:23:53.422Z,99574.47
2018-04-12T02:26:21.704Z,99566.81
2018-04-12T02:28:50.089Z,99563.23
2018-04-12T02:31:18.364Z,99556.89
2018-04-12T02:33:46.657Z,99558.55
2018-04-12T02:36:14.932Z,99548.80
2018-04-12T02:38:43.214Z,99558.06
2018-04-12T02:41:11.500Z,99550.70
2018-04-12T02:43:39.815Z,99542.59
2018-04-12T02:46:08.093Z,99542.58
2018-04-12T02:48:36.366Z,99534.80
2018-04-12T02:51:04.658Z,99536.39
2018-04-12T02:53:32.935Z,99534.88
2018-04-12T02:56:01.267Z,99529.17
2018-04-12T02:58:29.534Z,99524.00
2018-04-12T03:00:57.814Z,99520.16
2018-04-12T03:03:26.102Z,99527.28
2018-04-12T03:05:54.386Z,99517.64
2018-04-12T03:08:22.679Z,99528.83
2018-04-12T03:10:50.946Z,99519.61
2018-04-12T03:13:19.219Z,99522.61
2018-04-12T03:15:47.503Z,99513.62
2018-04-12T03:18:15.778Z,99517.86
2018-04-12T03:20:44.079Z,99514.61
2018-04-12T03:23:12.350Z,99505.91
2018-04-12T03:25:40.626Z,99512.16
2018-04-12T03:28:08.919Z,99505.17
2018-04-12T03:30:37.219Z,99502.36
2018-04-12T03:33:05.494Z,99496.86
2018-04-12T03:35:33.771Z,99497.81
2018-04-12T03:38:02.049Z,99497.57
2018-04-12T03:40:30.342Z,99499.38
2018-04-12T03:42:58.618Z,99494.92
2018-04-12T03:45:26.914Z,99495.36
2018-04-12T03:47:55.190Z,99495.92
2018-04-12T03:50:23.530Z,99493.64
2018-04-12T03:52:51.758Z,99498.66
2018-04-12T03:55:20.040Z,99500.59
2018-04-12T03:57:48.325Z,99497.70
2018-04-12T04:00:16.602Z,99499.23
2018-04-12T04:02:44.874Z,99497.09
2018-04-12T04:05:13.151Z,99499.19
2018-04-12T04:07:41.535Z,99487.87
2018-04-12T04:10:09.823Z,99486.91
2018-04-12T04:12:38.098Z,99487.39
2018-04-12T04:15:18.058Z,99487.25
2018-04-12T04:17:57.915Z,99490.16
2018-04-12T04:20:37.914Z,99474.80
2018-04-12T04:23:06.206Z,99472.28
2018-04-12T04:25:34.480Z,99461.70
2018-04-12T04:28:02.759Z,99460.64
2018-04-12T04:30:31.036Z,99449.06
2018-04-12T04:32:59.327Z,99447.45
2018-04-12T04:35:27.603Z,99452.31
2018-04-12T04:37:55.883Z,99439.58
2018-04-12T04:40:24.166Z,99438.15
2018-04-12T04:42:52.435Z,99432.09
2018-04-12T04:45:20.763Z,99437.46
2018-04-12T04:47:49.011Z,99436.95
2018-04-12T04:50:17.289Z,99427.69
2018-04-12T04:52:45.566Z,99426.04
2018-04-12T04:55:13.847Z,99422.17
2018-04-12T04:57:42.170Z,99429.31
2018-04-12T05:00:10.474Z,99430.02
2018-04-12T05:02:38.725Z,99441.89
2018-04-12T05:05:07.010Z,99441.95
2018-04-12T05:07:35.281Z,99437.45
2018-04-12T05:10:03.579Z,99446.41
2018-04-12T05:12:31.854Z,99437.95
2018-04-12T05:15:00.138Z,99442.42
2018-04-12T05:17:28.416Z,99444.03
2018-04-12T05:19:56.694Z,99439.55
2018-04-12T05:22:25.019Z,99440.45
2018-04-12T05:24:53.294Z,99441.27
2018-04-12T05:27:21.575Z,99436.31
2018-04-12T05:29:49.862Z,99432.98
2018-04-12T05:32:18.139Z,99431.11
2018-04-12T05:34:46.426Z,99430.61
2018-04-12T05:37:14.702Z,99429.60
2018-04-12T05:39:42.995Z,99418.27
2018-04-12T05:42:11.294Z,99417.70
2018-04-12T05:44:39.575Z,99424.84
2018-04-12T05:47:07.848Z,99420.64
2018-04-12T05:49:36.139Z,99413.72
2018-04-12T05:52:04.419Z,99426.94
2018-04-12T05:54:32.691Z,99424.91
2018-04-12T05:57:00.991Z,99433.70
2018-04-12T05:59:29.266Z,99428.13
2018-04-12T06:01:57.542Z,99434.55
2018-04-12T06:04:25.844Z,99441.48
2018-04-12T06:06:54.125Z,99456.56
2018-04-12T06:09:22.398Z,99443.93
2018-04-12T06:11:50.696Z,99456.54
2018-04-12T06:14:18.975Z,99444.52
2018-04-12T06:16:47.259Z,99432.97
2018-04-12T06:19:15.550Z,99433.84
2018-04-12T06:21:43.862Z,99437.41
2018-04-12T06:24:12.139Z,99442.84
2018-04-12T06:26:40.434Z,99431.48
2018-04-12T06:29:08.706Z,99426.48
2018-04-12T06:31:36.986Z,99416.02
2018-04-12T06:34:05.281Z,99413.29
2018-04-12T06:36:33.556Z,99413.39
2018-04-12T06:39:01.835Z,99413.33
2018-04-12T06:41:30.127Z,99401.47
2018-04-12T06:43:58.410Z,99408.44
2018-04-12T06:46:26.691Z,99413.55
2018-04-12T06:48:54.981Z,99410.03
2018-04-12T06:51:23.266Z,99406.66
2018-04-12T06:53:51.545Z,99412.72
2018-04-12T06:56:19.835Z,99403.53
2018-04-12T06:58:48.112Z,99405.11
2018-04-12T07:01:16.388Z,99411.96
2018-04-12T07:03:44.686Z,99399.86
2018-04-12T07:06:12.996Z,99406.89
2018-04-12T07:08:41.243Z,99404.53
2018-04-12T07:11:09.543Z,99382.12
2018-04-12T07:13:37.819Z,99381.39
2018-04-12T07:16:06.090Z,99389.30
2018-04-12T07:18:34.382Z,99386.61
2018-04-12T07:21:02.658Z,99392.21
2018-04-12T07:23:30.934Z,99396.92
2018-04-12T07:25:59.251Z,99398.66
2018-04-12T07:28:27.526Z,99397.98
2018-04-12T07:30:55.811Z,99388.83
2018-04-12T07:33:24.126Z,99395.78
2018-04-12T07:35:52.410Z,99397.30
2018-04-12T07:38:20.690Z,99394.05
2018-04-12T07:40:49.003Z,99387.56
2018-04-12T07:43:17.278Z,99388.48
2018-04-12T07:45:45.575Z,99388.38
2018-04-12T07:48:13.885Z,99375.26
2018-04-12T07:50:42.168Z,99380.61
2018-04-12T07:53:10.439Z,99368.89
2018-04-12T07:55:39.011Z,99366.30
2018-04-12T07:58:07.286Z,99350.94
2018-04-12T08:00:35.563Z,99348.92
2018-04-12T08:03:03.854Z,99349.30
2018-04-12T08:05:32.147Z,99348.22
2018-04-12T08:08:00.476Z,99355.32
2018-04-12T08:10:28.711Z,99355.61
2018-04-12T08:12:56.981Z,99349.09
2018-04-12T08:15:25.255Z,99355.64
2018-04-12T08:17:53.558Z,99341.58
2018-04-12T08:20:21.862Z,99347.33
2018-04-12T08:22:50.143Z,99327.94
2018-04-12T08:25:18.459Z,99330.98
2018-04-12T08:27:46.746Z,99329.55
2018-04-12T08:30:15.034Z,99326.57
2018-04-12T08:32:43.318Z,99320.92
2018-04-12T08:35:11.591Z,99317.20
2018-04-12T08:37:39.898Z,99307.00
2018-04-12T08:40:08.196Z,99303.45
2018-04-12T08:42:36.476Z,99301.68
2018-04-12T08:45:04.743Z,99306.95
2018-04-12T08:47:33.040Z,99293.41
2018-04-12T08:50:01.310Z,99290.28
2018-04-12T08:52:29.594Z,99301.45
2018-04-12T08:54:57.882Z,99305.95
2018-04-12T08:57:26.166Z,99315.48
2018-04-12T08:59:54.455Z,99323.66
2018-04-12T09:02:22.735Z,99324.50
2018-04-12T09:04:51.025Z,99323.06
2018-04-12T09:07:19.298Z,99322.81
2018-04-12T09:09:47.590Z,99322.68
2018-04-12T09:12:15.873Z,99306.43
2018-04-12T09:14:44.154Z,99311.78
2018-04-12T09:17:12.426Z,99300.81
2018-04-12T09:19:40.720Z,99296.35
2018-04-12T09:22:08.996Z,99308.55
2018-04-12T09:24:37.287Z,99312.54
2018-04-12T09:27:05.568Z,99316.80
2018-04-12T09:29:33.851Z,99304.86
2018-04-12T09:32:02.153Z,99311.69
2018-04-12T09:34:30.414Z,99306.28
2018-04-12T09:36:58.707Z,99304.11
2018-04-12T09:39:27.035Z,99299.65
2018-04-12T09:41:55.330Z,99288.77
2018-04-12T09:44:23.607Z,99279.59
2018-04-12T09:46:51.894Z,99275.53
2018-04-12T09:49:20.197Z,99273.97
2018-04-12T09:51:48.483Z,99279.86
2018-04-12T09:54:16.746Z,99282.46
2018-04-12T09:56:45.047Z,99285.09
2018-04-12T09:59:13.315Z,99304.08
2018-04-12T10:01:47.160Z,99301.41
2018-04-12T10:04:16.234Z,99289.22
2018-04-12T10:06:50.009Z,99288.75
2018-04-12T10:09:18.289Z,99301.59
2018-04-12T10:11:46.558Z,99305.11
2018-04-12T10:14:15.692Z,99314.84
2018-04-12T10:16:43.957Z,99311.44
2018-04-12T10:19:12.262Z,99312.23
2018-04-12T10:21:40.595Z,99306.42
2018-04-12T10:24:08.834Z,99320.77
2018-04-12T10:26:37.110Z,99334.00
2018-04-12T10:29:05.402Z,99338.05
2018-04-12T10:31:33.675Z,99338.34
2018-04-12T10:34:01.962Z,99322.37
2018-04-12T10:36:30.241Z,99323.38
2018-04-12T10:38:58.523Z,99321.48
2018-04-12T10:41:26.802Z,99321.27
2018-04-12T10:43:55.099Z,99325.08
2018-04-12T10:46:23.391Z,99319.81
2018-04-12T10:48:51.953Z,99322.16
2018-04-12T10:51:20.236Z,99328.07
2018-04-12T10:53:48.515Z,99329.47
2018-04-12T10:56:16.806Z,99334.26
2018-04-12T10:58:45.287Z,99334.33
2018-04-12T11:01:13.664Z,99329.28
2018-04-12T11:03:41.963Z,99323.66
2018-04-12T11:06:10.491Z,99320.38
2018-04-12T11:08:38.801Z,99317.73
2018-04-12T11:11:07.095Z,99309.86
2018-04-12T11:13:35.850Z,99307.59
2018-04-12T11:16:04.170Z,99300.53
2018-04-12T11:18:32.619Z,99303.30
2018-04-12T11:21:00.855Z,99302.44
2018-04-12T11:23:29.289Z,99300.55
2018-04-12T11:25:57.665Z,99301.80
2018-04-12T11:28:26.163Z,99297.03
2018-04-12T11:30:54.844Z,99304.55
2018-04-12T11:33:23.558Z,99303.81
2018-04-12T11:35:51.923Z,99300.97
2018-04-12T11:38:20.202Z,99297.40
2018-04-12T11:40:48.479Z,99285.52
2018-04-12T11:43:16.769Z,99288.91
2018-04-12T11:45:45.075Z,99284.84
2018-04-12T11:48:13.370Z,99279.30
2018-04-12T11:50:41.654Z,99278.39
2018-04-12T11:53:09.948Z,99278.78
2018-04-12T11:55:38.258Z,99280.71
2018-04-12T11:58:06.522Z,99286.13
2018-04-12T12:00:34.804Z,99273.61
2018-04-12T12:03:03.115Z,99263.53
2018-04-12T12:05:31.546Z,99275.70
2018-04-12T12:07:59.869Z,99266.22
2018-04-12T12:10:28.166Z,99272.28
2018-04-12T12:12:56.439Z,99261.87
2018-04-12T12:15:24.719Z,99258.47
2018-04-12T12:17:53.019Z,99264.03
2018-04-12T12:20:21.291Z,99256.78
2018-04-12T12:22:49.604Z,99249.30
2018-04-12T12:28:14.598Z,99239.53
2018-04-12T12:30:42.882Z,99236.02
2018-04-12T12:33:11.164Z,99243.20
2018-04-12T12:35:39.446Z,99234.56
2018-04-12T12:38:07.736Z,99233.31
2018-04-12T12:40:36.023Z,99223.14
2018-04-12T12:43:04.310Z,99231.64
2018-04-12T12:45:32.605Z,99235.33
2018-04-12T12:48:00.881Z,99229.72
2018-04-12T12:50:29.155Z,99226.38
2018-04-12T12:52:57.439Z,99229.08
2018-04-12T12:55:25.718Z,99225.30
2018-04-12T12:57:54.008Z,99223.00
2018-04-12T13:00:22.292Z,99221.98
2018-04-12T13:02:51.629Z,99223.48
2018-04-12T13:05:19.914Z,99215.55
2018-04-12T13:07:48.205Z,99213.10
2018-04-12T13:10:16.482Z,99220.94
2018-04-12T13:12:45.674Z,99225.28
2018-04-12T13:15:13.966Z,99231.71
2018-04-12T13:17:42.238Z,99240.35
2018-04-12T13:20:10.524Z,99252.56
2018-04-12T13:22:38.809Z,99260.16
2018-04-12T13:25:07.106Z,99247.27
2018-04-12T13:27:35.377Z,99245.86
2018-04-12T13:30:03.650Z,99245.42
2018-04-12T13:32:31.941Z,99235.39
2018-04-12T13:35:00.225Z,99225.67
2018-04-12T13:37:28.503Z,99238.70
2018-04-12T13:39:56.786Z,99233.80
2018-04-12T13:42:25.110Z,99225.39
2018-04-12T13:44:53.350Z,99240.69
2018-04-12T13:47:21.641Z,99247.76
2018-04-12T13:49:49.926Z,99250.56
2018-04-12T13:52:18.199Z,99252.83
2018-04-12T13:54:46.502Z,99247.87
2018-04-12T13:57:14.776Z,99243.67
2018-04-12T13:59:43.054Z,99246.19
2018-04-12T14:02:11.336Z,99233.35
2018-04-12T14:04:39.623Z,99229.55
2018-04-12T14:07:07.891Z,99233.44
2018-04-12T14:09:36.186Z,99228.89
2018-04-12T14:12:04.470Z,99224.12
2018-04-12T14:14:32.754Z,99236.96
2018-04-12T14:17:01.047Z,99237.56
2018-04-12T14:19:29.319Z,99237.18
2018-04-12T14:21:57.610Z,99240.14
2018-04-12T14:24:25.903Z,99248.02
2018-04-12T14:26:54.189Z,99243.82
2018-04-12T14:29:22.466Z,99253.14
2018-04-12T14:31:50.735Z,99254.41
2018-04-12T14:34:19.022Z,99255.30
2018-04-12T14:36:47.295Z,99255.73
2018-04-12T14:39:15.587Z,99252.59
2018-04-12T14:41:43.884Z,99258.97
2018-04-12T14:44:12.176Z,99260.13
2018-04-12T14:46:40.450Z,99264.77
2018-04-12T14:49:08.730Z,99248.76
2018-04-12T14:51:37.024Z,99255.18
2018-04-12T14:54:05.313Z,99257.02
2018-04-12T14:56:33.607Z,99262.21
2018-04-12T14:59:01.878Z,99263.23
2018-04-12T15:01:30.158Z,99257.74
2018-04-12T15:03:58.434Z,99258.12
2018-04-12T15:06:26.716Z,99255.58
2018-04-12T15:08:55.126Z,99257.14
2018-04-12T15:11:23.430Z,99254.70
2018-04-12T15:13:51.706Z,99260.52
2018-04-12T15:16:19.997Z,99258.83
2018-04-12T15:18:48.301Z,99259.44
2018-04-12T15:21:16.566Z,99266.86
2018-04-12T15:23:44.849Z,99269.31
2018-04-12T15:26:13.138Z,99269.30
2018-04-12T15:28:41.434Z,99268.29
2018-04-12T15:31:09.735Z,99270.39
2018-04-12T15:33:38.023Z,99276.53
2018-04-12T15:36:06.314Z,99272.85
2018-04-12T15:38:34.603Z,99283.23
2018-04-12T15:41:02.881Z,99288.17
2018-04-12T15:43:31.187Z,99293.91
2018-04-12T15:45:59.524Z,99292.45
2018-04-12T15:48:27.814Z,99293.31
2018-04-12T15:50:56.698Z,99298.84
2018-04-12T15:53:25.001Z,99297.68
2018-04-12T15:55:53.279Z,99302.31
2018-04-12T15:58:21.555Z,99303.03
2018-04-12T16:00:50.102Z,99299.33
2018-04-12T16:03:18.382Z,99294.42
2018-04-12T16:05:46.667Z,99299.24
2018-04-12T16:08:14.958Z,99299.48
2018-04-12T16:10:43.238Z,99303.55
2018-04-12T16:13:11.562Z,99300.69
2018-04-12T16:15:39.842Z,99296.59
2018-04-12T16:18:08.135Z,99295.66
2018-04-12T16:20:36.419Z,99300.01
2018-04-12T16:23:04.719Z,99312.64
2018-04-12T16:25:33.008Z,99311.97
2018-04-12T16:28:01.290Z,99317.13
2018-04-12T16:30:29.583Z,99317.63
2018-04-12T16:32:57.860Z,99324.44
2018-04-12T16:35:26.153Z,99321.16
2018-04-12T16:37:54.426Z,99325.68
2018-04-12T16:40:22.702Z,99324.73
2018-04-12T16:42:50.986Z,99319.39
2018-04-12T16:45:19.254Z,99313.94
2018-04-12T16:47:47.539Z,99315.87
2018-04-12T16:50:15.814Z,99319.98
2018-04-12T16:52:44.122Z,99319.44
2018-04-12T16:55:12.420Z,99316.50
2018-04-12T16:57:40.693Z,99324.81
2018-04-12T17:00:08.995Z,99328.91
2018-04-12T17:02:37.253Z,99330.95
2018-04-12T17:05:05.550Z,99326.21
2018-04-12T17:07:33.822Z,99335.49
2018-04-12T17:10:02.359Z,99346.64
2018-04-12T17:12:30.634Z,99351.95
2018-04-12T17:14:58.898Z,99352.77
2018-04-12T17:17:27.181Z,99365.27
2018-04-12T17:19:55.458Z,99359.80
2018-04-12T17:22:23.738Z,99359.81
2018-04-12T17:24:52.006Z,99363.77
2018-04-12T17:27:20.278Z,99371.67
2018-04-12T17:29:48.565Z,99376.64
2018-04-12T17:32:16.841Z,99381.72
2018-04-12T17:34:45.119Z,99386.77
2018-04-12T17:37:13.383Z,99388.92
2018-04-12T17:39:41.670Z,99394.78
2018-04-12T17:42:09.938Z,99395.06
2018-04-12T17:44:38.215Z,99393.53
2018-04-12T17:47:06.486Z,99399.89
2018-04-12T17:49:34.755Z,99394.55
2018-04-12T17:52:03.042Z,99399.20
2018-04-12T17:54:31.319Z,99397.25
2018-04-12T17:56:59.707Z,99393.97
2018-04-12T17:59:27.975Z,99409.85
2018-04-12T18:01:56.264Z,99403.30
2018-04-12T18:04:24.526Z,99412.33
2018-04-12T18:06:52.802Z,99411.56
2018-04-12T18:09:21.075Z,99419.39
2018-04-12T18:11:50.055Z,99423.88
2018-04-12T18:14:18.485Z,99429.31
2018-04-12T18:16:46.746Z,99425.73
2018-04-12T18:19:15.045Z,99432.42
2018-04-12T18:21:43.313Z,99425.05
2018-04-12T18:24:11.588Z,99423.23
2018-04-12T18:26:39.865Z,99429.29
2018-04-12T18:29:08.142Z,99427.97
2018-04-12T18:31:36.430Z,99432.62
2018-04-12T18:34:04.706Z,99439.24
2018-04-12T18:36:32.995Z,99439.14
2018-04-12T18:39:01.258Z,99439.59
2018-04-12T18:41:29.534Z,99446.64
2018-04-12T18:43:57.822Z,99457.55
2018-04-12T18:46:26.086Z,99459.88
2018-04-12T18:48:54.404Z,99466.67
2018-04-12T18:51:22.670Z,99471.23
2018-04-12T18:53:50.951Z,99476.20
2018-04-12T18:56:19.257Z,99481.08
2018-04-12T18:58:47.521Z,99484.89
2018-04-12T19:01:15.806Z,99494.56
2018-04-12T19:03:44.075Z,99499.95
2018-04-12T19:06:12.359Z,99506.67
2018-04-12T19:08:40.631Z,99508.86
2018-04-12T19:11:08.909Z,99504.45
2018-04-12T19:13:37.179Z,99505.66
2018-04-12T19:16:05.454Z,99508.49
2018-04-12T19:18:33.738Z,99511.11
2018-04-12T19:21:02.010Z,99510.78
2018-04-12T19:23:30.285Z,99514.53
2018-04-12T19:25:58.577Z,99520.07
2018-04-12T19:28:26.855Z,99518.79
2018-04-12T19:30:55.119Z,99519.84
2018-04-12T19:33:23.402Z,99522.59
2018-04-12T19:35:51.672Z,99523.00
2018-04-12T19:38:19.946Z,99527.25
2018-04-12T19:40:48.235Z,99525.62
2018-04-12T19:43:16.502Z,99525.52
2018-04-12T19:45:44.774Z,99533.00
2018-04-12T19:48:13.054Z,99540.02
2018-04-12T19:50:41.374Z,99536.66
2018-04-12T19:53:09.659Z,99537.90
2018-04-12T19:55:37.925Z,99536.78
2018-04-12T19:58:06.197Z,99527.24
2018-04-12T20:00:34.498Z,99538.41
2018-04-12T20:03:02.774Z,99547.14
2018-04-12T20:05:31.050Z,99538.75
2018-04-12T20:07:59.578Z,99537.86
2018-04-12T20:10:27.846Z,99544.20
2018-04-12T20:12:56.107Z,99541.09
2018-04-12T20:15:24.382Z,99537.81
2018-04-12T20:17:52.645Z,99538.33
2018-04-12T20:20:20.934Z,99536.61
2018-04-12T20:22:49.220Z,99536.98
2018-04-12T20:25:17.462Z,99541.31
2018-04-12T20:27:45.726Z,99538.73
2018-04-12T20:30:14.022Z,99538.70
2018-04-12T20:32:42.285Z,99540.10
2018-04-12T20:35:10.558Z,99546.61
2018-04-12T20:37:38.849Z,99539.50
2018-04-12T20:40:07.122Z,99546.21
2018-04-12T20:42:35.405Z,99555.03
2018-04-12T20:45:03.680Z,99554.22
2018-04-12T20:47:31.958Z,99550.57
2018-04-12T20:50:00.226Z,99552.14
2018-04-12T20:52:28.514Z,99551.45
2018-04-12T20:54:56.788Z,99550.48
2018-04-12T20:57:25.074Z,99556.92
2018-04-12T20:59:53.349Z,99557.83
2018-04-12T21:02:21.612Z,99565.05
2018-04-12T21:04:49.891Z,99565.42
2018-04-12T21:07:18.158Z,99560.02
2018-04-12T21:09:46.441Z,99557.30
2018-04-12T21:12:14.707Z,99553.40
2018-04-12T21:14:42.986Z,99554.48
2018-04-12T21:17:11.254Z,99556.06
2018-04-12T21:19:39.538Z,99549.97
2018-04-12T21:22:07.829Z,99557.27
2018-04-12T21:24:36.095Z,99559.34
2018-04-12T21:27:04.382Z,99562.92
2018-04-12T21:29:32.656Z,99562.58
2018-04-12T21:32:00.940Z,99558.20
2018-04-12T21:34:29.202Z,99563.84
2018-04-12T21:36:57.742Z,99569.07
2018-04-12T21:39:26.010Z,99567.92
2018-04-12T21:41:54.279Z,99561.19
2018-04-12T21:44:22.555Z,99564.73
2018-04-12T21:46:50.818Z,99565.70
2018-04-12T21:49:19.121Z,99568.38
2018-04-12T21:51:47.382Z,99573.34
2018-04-12T21:54:15.768Z,99585.59
2018-04-12T21:56:44.038Z,99578.00
2018-04-12T21:59:12.320Z,99586.58
2018-04-12T22:01:40.590Z,99588.27
2018-04-12T22:04:08.875Z,99591.93
2018-04-12T22:06:37.145Z,99593.98
2018-04-12T22:09:06.134Z,99593.50
2018-04-12T22:11:34.418Z,99602.44
2018-04-12T22:14:02.690Z,99604.23
2018-04-12T22:16:30.966Z,99606.78
2018-04-12T22:18:59.234Z,99607.38
2018-04-12T22:21:27.764Z,99612.49
2018-04-12T22:23:56.049Z,99608.84
2018-04-12T22:26:24.327Z,99608.17
2018-04-12T22:28:52.598Z,99609.34
2018-04-12T22:31:20.874Z,99603.63
2018-04-12T22:33:49.149Z,99603.91
2018-04-12T22:36:17.402Z,99605.83
2018-04-12T22:38:45.691Z,99616.98
2018-04-12T22:41:13.979Z,99608.04
2018-04-12T22:43:42.259Z,99611.77
2018-04-12T22:46:10.534Z,99615.91
2018-04-12T22:48:38.824Z,99620.89
2018-04-12T22:51:07.082Z,99617.23
2018-04-12T22:53:35.350Z,99615.45
2018-04-12T22:56:03.624Z,99616.70
2018-04-12T22:58:31.886Z,99625.11
2018-04-12T23:01:00.158Z,99628.08
2018-04-12T23:03:28.430Z,99639.44
2018-04-12T23:05:56.702Z,99632.26
2018-04-12T23:08:24.976Z,99641.53
2018-04-12T23:10:53.263Z,99637.78
2018-04-12T23:13:21.542Z,99641.41
2018-04-12T23:15:49.810Z,99638.67
2018-04-12T23:18:18.085Z,99644.79
2018-04-12T23:20:46.359Z,99649.91
2018-04-12T23:23:14.642Z,99641.19
2018-04-12T23:25:42.906Z,99653.61
2018-04-12T23:28:11.186Z,99646.46
2018-04-12T23:30:39.454Z,99651.98
2018-04-12T23:33:07.739Z,99665.87
2018-04-12T23:35:36.022Z,99656.42
2018-04-12T23:38:04.546Z,99661.42
2018-04-12T23:40:32.821Z,99653.50
2018-04-12T23:43:01.090Z,99664.41
2018-04-12T23:45:29.373Z,99660.76
2018-04-12T23:47:57.638Z,99660.95
2018-04-12T23:50:25.918Z,99671.13
2018-04-12T23:52:54.190Z,99668.17
2018-04-12T23:55:22.471Z,99667.06
2018-04-12T23:57:50.747Z,99673.76
